sensor_id;sensor_type;location;lat;lon;timestamp;pressure;altitude;pressure_sealevel;temperature;humidity
7962;BME280;4026;43.652;24.906;2022-08-18T00:01:09;98699.50;;;23.66;67.40
7962;BME280;4026;43.652;24.906;2022-08-18T00:03:38;98712.75;;;23.64;67.37
7962;BME280;4026;43.652;24.906;2022-08-18T00:06:05;98711.34;;;23.62;67.12
7962;BME280;4026;43.652;24.906;2022-08-18T00:08:32;98712.38;;;23.61;67.40
7962;BME280;4026;43.652;24.906;2022-08-18T00:10:59;98710.97;;;23.58;67.68
7962;BME280;4026;43.652;24.906;2022-08-18T00:13:28;98712.38;;;23.54;67.91
7962;BME280;4026;43.652;24.906;2022-08-18T00:15:54;98703.75;;;23.47;67.30
7962;BME280;4026;43.652;24.906;2022-08-18T00:18:21;98711.59;;;23.47;67.00
7962;BME280;4026;43.652;24.906;2022-08-18T00:20:48;98715.00;;;23.41;67.41
7962;BME280;4026;43.652;24.906;2022-08-18T00:23:15;98715.44;;;23.31;68.05
7962;BME280;4026;43.652;24.906;2022-08-18T00:25:42;98724.06;;;23.32;68.85
7962;BME280;4026;43.652;24.906;2022-08-18T00:28:09;98719.66;;;23.25;68.67
7962;BME280;4026;43.652;24.906;2022-08-18T00:30:38;98719.25;;;23.28;67.88
7962;BME280;4026;43.652;24.906;2022-08-18T00:33:05;98718.06;;;23.24;67.97
7962;BME280;4026;43.652;24.906;2022-08-18T00:35:34;98713.63;;;23.18;68.89
7962;BME280;4026;43.652;24.906;2022-08-18T00:38:04;98713.22;;;23.15;68.86
7962;BME280;4026;43.652;24.906;2022-08-18T00:40:36;98706.00;;;23.10;69.92
7962;BME280;4026;43.652;24.906;2022-08-18T00:43:04;98716.84;;;23.07;70.22
7962;BME280;4026;43.652;24.906;2022-08-18T00:45:34;98712.03;;;23.04;70.23
7962;BME280;4026;43.652;24.906;2022-08-18T00:48:04;98722.03;;;23.00;70.61
7962;BME280;4026;43.652;24.906;2022-08-18T00:50:37;98713.22;;;23.01;70.10
7962;BME280;4026;43.652;24.906;2022-08-18T00:53:08;98722.66;;;22.96;71.07
7962;BME280;4026;43.652;24.906;2022-08-18T00:55:39;98721.03;;;22.95;71.17
7962;BME280;4026;43.652;24.906;2022-08-18T00:58:10;98726.03;;;22.90;72.11
7962;BME280;4026;43.652;24.906;2022-08-18T01:00:40;98729.44;;;22.83;72.54
7962;BME280;4026;43.652;24.906;2022-08-18T01:03:11;98728.22;;;22.79;72.33
7962;BME280;4026;43.652;24.906;2022-08-18T01:05:44;98726.41;;;22.80;72.46
7962;BME280;4026;43.652;24.906;2022-08-18T01:08:14;98733.22;;;22.74;72.54
7962;BME280;4026;43.652;24.906;2022-08-18T01:10:42;98734.00;;;22.68;73.23
7962;BME280;4026;43.652;24.906;2022-08-18T01:13:10;98731.41;;;22.68;72.50
7962;BME280;4026;43.652;24.906;2022-08-18T01:15:37;98736.41;;;22.63;73.27
7962;BME280;4026;43.652;24.906;2022-08-18T01:18:08;98734.19;;;22.60;73.52
7962;BME280;4026;43.652;24.906;2022-08-18T01:21:02;98739.59;;;22.52;74.34
7962;BME280;4026;43.652;24.906;2022-08-18T01:23:49;98742.59;;;22.49;74.61
7962;BME280;4026;43.652;24.906;2022-08-18T01:26:18;98740.56;;;22.44;74.88
7962;BME280;4026;43.652;24.906;2022-08-18T01:28:46;98746.34;;;22.40;75.56
7962;BME280;4026;43.652;24.906;2022-08-18T01:31:29;98747.34;;;22.32;75.51
7962;BME280;4026;43.652;24.906;2022-08-18T01:33:59;98753.97;;;22.34;75.38
7962;BME280;4026;43.652;24.906;2022-08-18T01:36:27;98749.97;;;22.38;74.84
7962;BME280;4026;43.652;24.906;2022-08-18T01:38:56;98747.53;;;22.30;75.51
7962;BME280;4026;43.652;24.906;2022-08-18T01:41:23;98753.72;;;22.29;75.32
7962;BME280;4026;43.652;24.906;2022-08-18T01:43:50;98748.91;;;22.26;75.42
7962;BME280;4026;43.652;24.906;2022-08-18T01:46:18;98743.44;;;22.14;75.94
7962;BME280;4026;43.652;24.906;2022-08-18T01:48:46;98741.00;;;22.13;76.18
7962;BME280;4026;43.652;24.906;2022-08-18T01:51:14;98739.47;;;22.19;76.77
7962;BME280;4026;43.652;24.906;2022-08-18T01:53:42;98740.41;;;22.11;76.56
7962;BME280;4026;43.652;24.906;2022-08-18T01:56:11;98734.19;;;22.05;76.78
7962;BME280;4026;43.652;24.906;2022-08-18T01:58:43;98732.53;;;21.98;77.44
7962;BME280;4026;43.652;24.906;2022-08-18T02:01:12;98731.31;;;21.93;77.54
7962;BME280;4026;43.652;24.906;2022-08-18T02:03:42;98726.50;;;21.90;77.37
7962;BME280;4026;43.652;24.906;2022-08-18T02:06:13;98733.06;;;21.86;77.92
7962;BME280;4026;43.652;24.906;2022-08-18T02:08:41;98737.22;;;21.74;78.33
7962;BME280;4026;43.652;24.906;2022-08-18T02:11:08;98732.38;;;21.71;78.86
7962;BME280;4026;43.652;24.906;2022-08-18T02:13:36;98730.78;;;21.70;78.99
7962;BME280;4026;43.652;24.906;2022-08-18T02:16:05;98729.94;;;21.63;78.42
7962;BME280;4026;43.652;24.906;2022-08-18T02:18:34;98726.72;;;21.61;78.75
7962;BME280;4026;43.652;24.906;2022-08-18T02:21:07;98734.50;;;21.61;79.01
7962;BME280;4026;43.652;24.906;2022-08-18T02:23:34;98740.16;;;21.64;79.02
7962;BME280;4026;43.652;24.906;2022-08-18T02:26:03;98746.97;;;21.65;79.33
7962;BME280;4026;43.652;24.906;2022-08-18T02:28:30;98745.56;;;21.69;79.30
7962;BME280;4026;43.652;24.906;2022-08-18T02:31:04;98749.59;;;21.72;79.49
7962;BME280;4026;43.652;24.906;2022-08-18T02:33:32;98743.81;;;21.70;79.65
7962;BME280;4026;43.652;24.906;2022-08-18T02:35:59;98744.81;;;21.76;78.60
7962;BME280;4026;43.652;24.906;2022-08-18T02:38:26;98742.00;;;21.70;79.12
7962;BME280;4026;43.652;24.906;2022-08-18T02:40:54;98747.63;;;21.74;78.48
7962;BME280;4026;43.652;24.906;2022-08-18T02:43:22;98744.41;;;21.72;78.37
7962;BME280;4026;43.652;24.906;2022-08-18T02:45:49;98739.78;;;21.67;78.81
7962;BME280;4026;43.652;24.906;2022-08-18T02:48:18;98745.53;;;21.63;79.34
7962;BME280;4026;43.652;24.906;2022-08-18T02:50:47;98742.31;;;21.61;78.92
7962;BME280;4026;43.652;24.906;2022-08-18T02:53:14;98738.13;;;21.60;79.18
7962;BME280;4026;43.652;24.906;2022-08-18T02:55:46;98733.94;;;21.59;79.96
7962;BME280;4026;43.652;24.906;2022-08-18T02:58:13;98741.50;;;21.54;80.31
7962;BME280;4026;43.652;24.906;2022-08-18T03:00:40;98744.09;;;21.54;79.84
7962;BME280;4026;43.652;24.906;2022-08-18T03:03:08;98741.50;;;21.54;80.05
7962;BME280;4026;43.652;24.906;2022-08-18T03:05:36;98740.25;;;21.50;80.16
7962;BME280;4026;43.652;24.906;2022-08-18T03:08:03;98741.84;;;21.44;80.22
7962;BME280;4026;43.652;24.906;2022-08-18T03:10:30;98745.41;;;21.43;80.14
7962;BME280;4026;43.652;24.906;2022-08-18T03:12:57;98743.47;;;21.52;79.61
7962;BME280;4026;43.652;24.906;2022-08-18T03:15:24;98744.84;;;21.47;80.26
7962;BME280;4026;43.652;24.906;2022-08-18T03:17:51;98745.41;;;21.43;80.10
7962;BME280;4026;43.652;24.906;2022-08-18T03:20:17;98742.63;;;21.44;80.27
7962;BME280;4026;43.652;24.906;2022-08-18T03:22:46;98746.66;;;21.47;80.65
7962;BME280;4026;43.652;24.906;2022-08-18T03:25:14;98746.81;;;21.45;80.26
7962;BME280;4026;43.652;24.906;2022-08-18T03:27:41;98739.22;;;21.44;79.92
7962;BME280;4026;43.652;24.906;2022-08-18T03:30:08;98748.81;;;21.43;79.75
7962;BME280;4026;43.652;24.906;2022-08-18T03:32:35;98745.59;;;21.41;79.99
7962;BME280;4026;43.652;24.906;2022-08-18T03:35:03;98760.75;;;21.38;80.81
7962;BME280;4026;43.652;24.906;2022-08-18T03:37:29;98757.53;;;21.36;81.08
7962;BME280;4026;43.652;24.906;2022-08-18T03:39:59;98755.69;;;21.30;81.67
7962;BME280;4026;43.652;24.906;2022-08-18T03:42:26;98763.66;;;21.28;81.87
7962;BME280;4026;43.652;24.906;2022-08-18T03:44:52;98757.13;;;21.32;81.79
7962;BME280;4026;43.652;24.906;2022-08-18T03:47:19;98753.50;;;21.33;81.85
7962;BME280;4026;43.652;24.906;2022-08-18T03:49:46;98761.31;;;21.33;81.59
7962;BME280;4026;43.652;24.906;2022-08-18T03:52:13;98756.91;;;21.34;81.25
7962;BME280;4026;43.652;24.906;2022-08-18T03:54:40;98755.75;;;21.36;81.09
7962;BME280;4026;43.652;24.906;2022-08-18T03:57:09;98761.66;;;21.23;81.21
7962;BME280;4026;43.652;24.906;2022-08-18T03:59:37;98764.41;;;21.22;81.77
7962;BME280;4026;43.652;24.906;2022-08-18T04:02:08;98767.66;;;21.24;81.71
7962;BME280;4026;43.652;24.906;2022-08-18T04:04:36;98774.06;;;21.28;81.76
7962;BME280;4026;43.652;24.906;2022-08-18T04:07:07;98780.53;;;21.32;81.76
7962;BME280;4026;43.652;24.906;2022-08-18T04:09:35;98775.91;;;21.34;81.68
7962;BME280;4026;43.652;24.906;2022-08-18T04:12:05;98781.13;;;21.34;81.67
7962;BME280;4026;43.652;24.906;2022-08-18T04:14:39;98775.44;;;21.45;81.13
7962;BME280;4026;43.652;24.906;2022-08-18T04:17:07;98779.50;;;21.55;81.36
7962;BME280;4026;43.652;24.906;2022-08-18T04:19:34;98781.13;;;21.56;80.62
7962;BME280;4026;43.652;24.906;2022-08-18T04:22:03;98785.97;;;21.59;81.24
7962;BME280;4026;43.652;24.906;2022-08-18T04:24:31;98776.63;;;21.71;81.39
7962;BME280;4026;43.652;24.906;2022-08-18T04:27:00;98785.66;;;21.75;80.97
7962;BME280;4026;43.652;24.906;2022-08-18T04:29:28;98788.13;;;21.83;80.43
7962;BME280;4026;43.652;24.906;2022-08-18T04:31:59;98791.78;;;21.96;80.69
7962;BME280;4026;43.652;24.906;2022-08-18T04:34:29;98793.41;;;21.97;79.67
7962;BME280;4026;43.652;24.906;2022-08-18T04:36:57;98791.84;;;22.02;79.53
7962;BME280;4026;43.652;24.906;2022-08-18T04:39:24;98794.88;;;22.12;79.03
7962;BME280;4026;43.652;24.906;2022-08-18T04:41:51;98799.19;;;22.20;78.53
7962;BME280;4026;43.652;24.906;2022-08-18T04:44:19;98798.03;;;22.36;78.86
7962;BME280;4026;43.652;24.906;2022-08-18T04:46:47;98800.31;;;22.52;79.38
7962;BME280;4026;43.652;24.906;2022-08-18T04:49:17;98803.38;;;22.69;78.45
7962;BME280;4026;43.652;24.906;2022-08-18T04:51:46;98803.81;;;22.79;78.13
7962;BME280;4026;43.652;24.906;2022-08-18T04:54:36;98809.47;;;22.90;77.61
7962;BME280;4026;43.652;24.906;2022-08-18T04:57:08;98813.91;;;22.96;75.97
7962;BME280;4026;43.652;24.906;2022-08-18T04:59:35;98812.72;;;23.05;75.20
7962;BME280;4026;43.652;24.906;2022-08-18T05:02:02;98808.31;;;23.05;71.99
7962;BME280;4026;43.652;24.906;2022-08-18T05:04:35;98807.13;;;23.35;73.97
7962;BME280;4026;43.652;24.906;2022-08-18T05:07:03;98816.34;;;23.44;71.94
7962;BME280;4026;43.652;24.906;2022-08-18T05:09:31;98817.56;;;23.61;71.08
7962;BME280;4026;43.652;24.906;2022-08-18T05:11:58;98812.56;;;23.80;71.79
7962;BME280;4026;43.652;24.906;2022-08-18T05:14:27;98809.94;;;23.93;69.20
7962;BME280;4026;43.652;24.906;2022-08-18T05:16:57;98810.72;;;24.07;69.42
7962;BME280;4026;43.652;24.906;2022-08-18T05:19:24;98818.31;;;24.22;69.37
7962;BME280;4026;43.652;24.906;2022-08-18T05:21:53;98817.63;;;24.46;70.23
7962;BME280;4026;43.652;24.906;2022-08-18T05:24:22;98809.56;;;24.61;67.45
7962;BME280;4026;43.652;24.906;2022-08-18T05:26:50;98807.63;;;24.81;67.05
7962;BME280;4026;43.652;24.906;2022-08-18T05:29:18;98809.88;;;25.10;65.06
7962;BME280;4026;43.652;24.906;2022-08-18T05:31:46;98811.84;;;25.21;66.05
7962;BME280;4026;43.652;24.906;2022-08-18T05:34:14;98811.31;;;25.37;65.14
7962;BME280;4026;43.652;24.906;2022-08-18T05:36:55;98812.75;;;25.58;65.41
7962;BME280;4026;43.652;24.906;2022-08-18T05:39:27;98804.41;;;25.68;63.20
7962;BME280;4026;43.652;24.906;2022-08-18T05:42:02;98811.75;;;25.84;64.36
7962;BME280;4026;43.652;24.906;2022-08-18T05:44:32;98816.78;;;26.04;64.54
7962;BME280;4026;43.652;24.906;2022-08-18T05:47:03;98802.53;;;26.18;61.28
7962;BME280;4026;43.652;24.906;2022-08-18T05:49:33;98809.47;;;26.43;61.87
7962;BME280;4026;43.652;24.906;2022-08-18T05:52:04;98814.38;;;26.58;61.30
7962;BME280;4026;43.652;24.906;2022-08-18T05:54:37;98813.19;;;26.72;60.74
7962;BME280;4026;43.652;24.906;2022-08-18T05:57:23;98817.09;;;26.81;59.98
7962;BME280;4026;43.652;24.906;2022-08-18T05:59:52;98811.38;;;26.84;58.60
7962;BME280;4026;43.652;24.906;2022-08-18T06:02:29;98815.50;;;26.80;59.21
7962;BME280;4026;43.652;24.906;2022-08-18T06:05:00;98823.50;;;27.16;62.74
7962;BME280;4026;43.652;24.906;2022-08-18T06:07:35;98826.41;;;27.38;58.40
7962;BME280;4026;43.652;24.906;2022-08-18T06:10:06;98828.00;;;27.50;61.31
7962;BME280;4026;43.652;24.906;2022-08-18T06:12:36;98830.53;;;27.81;59.68
7962;BME280;4026;43.652;24.906;2022-08-18T06:15:08;98835.34;;;28.07;60.09
7962;BME280;4026;43.652;24.906;2022-08-18T06:17:48;98836.00;;;28.14;56.88
7962;BME280;4026;43.652;24.906;2022-08-18T06:20:24;98836.88;;;28.32;57.27
7962;BME280;4026;43.652;24.906;2022-08-18T06:23:03;98841.78;;;28.52;57.06
7962;BME280;4026;43.652;24.906;2022-08-18T06:25:36;98844.56;;;28.74;59.13
7962;BME280;4026;43.652;24.906;2022-08-18T06:28:11;98844.75;;;28.84;54.79
7962;BME280;4026;43.652;24.906;2022-08-18T06:30:47;98845.31;;;28.86;56.15
7962;BME280;4026;43.652;24.906;2022-08-18T06:33:31;98845.47;;;29.08;54.84
7962;BME280;4026;43.652;24.906;2022-08-18T06:36:05;98838.94;;;29.10;52.88
7962;BME280;4026;43.652;24.906;2022-08-18T06:42:00;98855.34;;;29.63;51.33
7962;BME280;4026;43.652;24.906;2022-08-18T06:44:33;98854.44;;;29.58;50.35
7962;BME280;4026;43.652;24.906;2022-08-18T06:47:12;98850.84;;;29.64;50.13
7962;BME280;4026;43.652;24.906;2022-08-18T06:49:44;98853.44;;;29.97;52.41
7962;BME280;4026;43.652;24.906;2022-08-18T06:52:24;98852.28;;;30.27;53.36
7962;BME280;4026;43.652;24.906;2022-08-18T06:54:53;98850.16;;;30.46;48.95
7962;BME280;4026;43.652;24.906;2022-08-18T06:57:29;98848.47;;;30.62;51.12
7962;BME280;4026;43.652;24.906;2022-08-18T06:59:58;98849.31;;;30.89;49.65
7962;BME280;4026;43.652;24.906;2022-08-18T07:02:36;98855.63;;;31.16;49.53
7962;BME280;4026;43.652;24.906;2022-08-18T07:05:06;98857.44;;;31.15;48.34
7962;BME280;4026;43.652;24.906;2022-08-18T07:07:35;98851.03;;;31.33;49.39
7962;BME280;4026;43.652;24.906;2022-08-18T07:10:06;98857.19;;;30.84;45.17
7962;BME280;4026;43.652;24.906;2022-08-18T07:12:35;98856.44;;;31.21;46.86
7962;BME280;4026;43.652;24.906;2022-08-18T07:15:03;98865.53;;;31.30;45.31
7962;BME280;4026;43.652;24.906;2022-08-18T07:17:33;98859.09;;;31.48;48.46
7962;BME280;4026;43.652;24.906;2022-08-18T07:20:06;98861.03;;;31.63;44.23
7962;BME280;4026;43.652;24.906;2022-08-18T07:22:55;98865.38;;;31.79;46.86
7962;BME280;4026;43.652;24.906;2022-08-18T07:25:26;98864.19;;;32.02;45.79
7962;BME280;4026;43.652;24.906;2022-08-18T07:27:55;98862.69;;;32.17;46.76
7962;BME280;4026;43.652;24.906;2022-08-18T07:30:31;98861.66;;;32.23;44.23
7962;BME280;4026;43.652;24.906;2022-08-18T07:33:08;98861.34;;;32.67;49.23
7962;BME280;4026;43.652;24.906;2022-08-18T07:35:39;98861.03;;;32.63;44.52
7962;BME280;4026;43.652;24.906;2022-08-18T07:38:12;98859.53;;;32.93;45.87
7962;BME280;4026;43.652;24.906;2022-08-18T07:40:45;98865.66;;;33.14;42.56
7962;BME280;4026;43.652;24.906;2022-08-18T07:43:19;98867.25;;;33.10;42.30
7962;BME280;4026;43.652;24.906;2022-08-18T07:45:49;98865.66;;;33.24;41.44
7962;BME280;4026;43.652;24.906;2022-08-18T07:48:22;98866.97;;;33.22;42.66
7962;BME280;4026;43.652;24.906;2022-08-18T07:50:55;98863.81;;;33.30;42.18
7962;BME280;4026;43.652;24.906;2022-08-18T07:53:31;98865.41;;;33.26;41.10
7962;BME280;4026;43.652;24.906;2022-08-18T07:56:04;98872.03;;;33.44;42.03
7962;BME280;4026;43.652;24.906;2022-08-18T07:58:39;98868.09;;;33.51;41.18
7962;BME280;4026;43.652;24.906;2022-08-18T08:01:12;98863.03;;;33.60;42.19
7962;BME280;4026;43.652;24.906;2022-08-18T08:03:47;98864.34;;;33.73;42.20
7962;BME280;4026;43.652;24.906;2022-08-18T08:06:23;98869.34;;;33.85;41.93
7962;BME280;4026;43.652;24.906;2022-08-18T08:08:59;98865.88;;;34.10;42.38
7962;BME280;4026;43.652;24.906;2022-08-18T08:11:38;98862.53;;;34.38;42.37
7962;BME280;4026;43.652;24.906;2022-08-18T08:14:20;98868.34;;;34.56;38.92
7962;BME280;4026;43.652;24.906;2022-08-18T08:17:01;98858.84;;;34.39;39.77
7962;BME280;4026;43.652;24.906;2022-08-18T08:19:46;98851.34;;;34.62;39.31
7962;BME280;4026;43.652;24.906;2022-08-18T08:22:19;98858.13;;;34.73;37.62
7962;BME280;4026;43.652;24.906;2022-08-18T08:24:54;98854.31;;;34.95;38.84
7962;BME280;4026;43.652;24.906;2022-08-18T08:27:27;98856.94;;;35.00;37.03
7962;BME280;4026;43.652;24.906;2022-08-18T08:30:03;98848.88;;;35.15;38.51
7962;BME280;4026;43.652;24.906;2022-08-18T08:32:33;98855.81;;;35.40;43.15
7962;BME280;4026;43.652;24.906;2022-08-18T08:35:04;98851.72;;;35.53;35.48
7962;BME280;4026;43.652;24.906;2022-08-18T08:37:38;98855.44;;;35.52;35.07
7962;BME280;4026;43.652;24.906;2022-08-18T08:40:12;98855.34;;;35.67;36.46
7962;BME280;4026;43.652;24.906;2022-08-18T08:42:48;98850.13;;;35.81;40.37
7962;BME280;4026;43.652;24.906;2022-08-18T08:45:23;98854.09;;;35.83;36.76
7962;BME280;4026;43.652;24.906;2022-08-18T08:47:59;98853.06;;;36.03;37.80
7962;BME280;4026;43.652;24.906;2022-08-18T08:50:28;98850.50;;;35.69;35.68
7962;BME280;4026;43.652;24.906;2022-08-18T08:53:00;98852.28;;;35.55;35.91
7962;BME280;4026;43.652;24.906;2022-08-18T08:55:30;98854.66;;;35.80;35.85
7962;BME280;4026;43.652;24.906;2022-08-18T08:58:11;98849.59;;;36.08;34.72
7962;BME280;4026;43.652;24.906;2022-08-18T09:00:44;98847.63;;;36.38;35.98
7962;BME280;4026;43.652;24.906;2022-08-18T09:03:30;98835.50;;;36.26;34.47
7962;BME280;4026;43.652;24.906;2022-08-18T09:06:08;98835.25;;;36.47;34.62
7962;BME280;4026;43.652;24.906;2022-08-18T09:08:48;98834.19;;;36.48;32.87
7962;BME280;4026;43.652;24.906;2022-08-18T09:14:38;98829.63;;;36.30;34.76
7962;BME280;4026;43.652;24.906;2022-08-18T09:17:41;98825.97;;;36.25;34.79
7962;BME280;4026;43.652;24.906;2022-08-18T09:20:32;98825.13;;;36.68;35.43
7962;BME280;4026;43.652;24.906;2022-08-18T09:23:06;98832.53;;;36.90;33.94
7962;BME280;4026;43.652;24.906;2022-08-18T09:25:45;98837.19;;;36.98;35.16
7962;BME280;4026;43.652;24.906;2022-08-18T09:28:16;98823.00;;;37.35;32.89
7962;BME280;4026;43.652;24.906;2022-08-18T09:30:47;98822.06;;;37.26;32.02
7962;BME280;4026;43.652;24.906;2022-08-18T09:33:33;98824.53;;;37.23;31.66
7962;BME280;4026;43.652;24.906;2022-08-18T09:36:21;98833.03;;;36.92;32.21
7962;BME280;4026;43.652;24.906;2022-08-18T09:38:56;98837.16;;;37.03;32.91
7962;BME280;4026;43.652;24.906;2022-08-18T09:41:47;98820.06;;;37.04;32.46
7962;BME280;4026;43.652;24.906;2022-08-18T09:47:58;98812.38;;;37.16;35.01
7962;BME280;4026;43.652;24.906;2022-08-18T09:50:36;98813.47;;;37.15;30.76
7962;BME280;4026;43.652;24.906;2022-08-18T09:53:32;98806.38;;;37.25;34.82
7962;BME280;4026;43.652;24.906;2022-08-18T09:56:01;98811.47;;;37.07;32.82
7962;BME280;4026;43.652;24.906;2022-08-18T09:58:56;98801.13;;;37.20;31.14
7962;BME280;4026;43.652;24.906;2022-08-18T10:01:35;98790.44;;;37.52;32.99
7962;BME280;4026;43.652;24.906;2022-08-18T10:04:31;98787.88;;;37.47;30.45
7962;BME280;4026;43.652;24.906;2022-08-18T10:07:26;98783.03;;;37.63;32.28
7962;BME280;4026;43.652;24.906;2022-08-18T10:10:06;98785.00;;;37.57;30.64
7962;BME280;4026;43.652;24.906;2022-08-18T10:12:54;98779.38;;;37.73;31.61
7962;BME280;4026;43.652;24.906;2022-08-18T10:15:47;98773.94;;;37.92;31.16
7962;BME280;4026;43.652;24.906;2022-08-18T10:18:37;98775.06;;;38.27;30.83
7962;BME280;4026;43.652;24.906;2022-08-18T10:21:10;98767.00;;;38.04;28.08
7962;BME280;4026;43.652;24.906;2022-08-18T10:23:55;98767.91;;;37.72;29.46
7962;BME280;4026;43.652;24.906;2022-08-18T10:29:52;98765.63;;;38.07;29.03
7962;BME280;4026;43.652;24.906;2022-08-18T10:32:41;98769.38;;;37.92;30.95
7962;BME280;4026;43.652;24.906;2022-08-18T10:38:27;98757.09;;;38.19;28.94
7962;BME280;4026;43.652;24.906;2022-08-18T10:41:05;98759.00;;;38.04;27.52
7962;BME280;4026;43.652;24.906;2022-08-18T10:43:37;98764.00;;;38.56;30.33
7962;BME280;4026;43.652;24.906;2022-08-18T10:46:14;98765.69;;;38.16;26.75
7962;BME280;4026;43.652;24.906;2022-08-18T10:48:42;98762.09;;;38.34;29.12
7962;BME280;4026;43.652;24.906;2022-08-18T10:51:15;98765.34;;;38.09;27.44
7962;BME280;4026;43.652;24.906;2022-08-18T10:53:50;98748.56;;;37.94;27.60
7962;BME280;4026;43.652;24.906;2022-08-18T10:56:28;98747.63;;;37.99;27.53
7962;BME280;4026;43.652;24.906;2022-08-18T10:59:07;98746.91;;;38.21;27.64
7962;BME280;4026;43.652;24.906;2022-08-18T11:01:59;98743.34;;;38.25;26.75
7962;BME280;4026;43.652;24.906;2022-08-18T11:04:30;98741.13;;;38.41;30.70
7962;BME280;4026;43.652;24.906;2022-08-18T11:07:04;98745.03;;;38.58;27.26
7962;BME280;4026;43.652;24.906;2022-08-18T11:09:33;98743.78;;;38.64;28.84
7962;BME280;4026;43.652;24.906;2022-08-18T11:12:02;98747.19;;;38.56;29.27
7962;BME280;4026;43.652;24.906;2022-08-18T11:17:42;98743.75;;;38.05;28.84
7962;BME280;4026;43.652;24.906;2022-08-18T11:20:14;98739.41;;;38.09;27.50
7962;BME280;4026;43.652;24.906;2022-08-18T11:22:49;98725.34;;;38.17;30.17
7962;BME280;4026;43.652;24.906;2022-08-18T11:25:28;98738.81;;;38.48;28.76
7962;BME280;4026;43.652;24.906;2022-08-18T11:27:57;98738.94;;;38.43;27.04
7962;BME280;4026;43.652;24.906;2022-08-18T11:30:26;98733.44;;;38.26;31.49
7962;BME280;4026;43.652;24.906;2022-08-18T11:32:54;98727.94;;;38.67;29.74
7962;BME280;4026;43.652;24.906;2022-08-18T11:35:26;98725.06;;;38.86;29.10
7962;BME280;4026;43.652;24.906;2022-08-18T11:37:57;98728.16;;;39.02;27.37
7962;BME280;4026;43.652;24.906;2022-08-18T11:40:29;98716.75;;;38.88;26.57
7962;BME280;4026;43.652;24.906;2022-08-18T11:43:03;98718.34;;;38.66;27.70
7962;BME280;4026;43.652;24.906;2022-08-18T11:45:33;98719.75;;;38.41;26.84
7962;BME280;4026;43.652;24.906;2022-08-18T11:48:15;98726.94;;;38.55;27.54
7962;BME280;4026;43.652;24.906;2022-08-18T11:50:47;98718.34;;;38.66;26.72
7962;BME280;4026;43.652;24.906;2022-08-18T11:53:20;98715.59;;;38.80;29.09
7962;BME280;4026;43.652;24.906;2022-08-18T11:56:02;98710.28;;;38.58;27.13
7962;BME280;4026;43.652;24.906;2022-08-18T11:58:42;98698.78;;;38.57;28.22
7962;BME280;4026;43.652;24.906;2022-08-18T12:01:11;98706.81;;;38.35;28.57
7962;BME280;4026;43.652;24.906;2022-08-18T12:03:54;98700.50;;;38.53;28.19
7962;BME280;4026;43.652;24.906;2022-08-18T12:06:25;98702.50;;;38.47;28.01
7962;BME280;4026;43.652;24.906;2022-08-18T12:08:57;98695.16;;;38.53;28.57
7962;BME280;4026;43.652;24.906;2022-08-18T12:11:27;98698.06;;;38.65;27.69
7962;BME280;4026;43.652;24.906;2022-08-18T12:14:03;98697.28;;;38.65;26.16
7962;BME280;4026;43.652;24.906;2022-08-18T12:16:33;98697.13;;;38.02;26.43
7962;BME280;4026;43.652;24.906;2022-08-18T12:19:00;98692.75;;;38.07;29.46
7962;BME280;4026;43.652;24.906;2022-08-18T12:21:27;98686.44;;;38.25;28.57
7962;BME280;4026;43.652;24.906;2022-08-18T12:23:54;98685.38;;;38.26;27.38
7962;BME280;4026;43.652;24.906;2022-08-18T12:26:21;98678.91;;;38.04;25.75
7962;BME280;4026;43.652;24.906;2022-08-18T12:28:48;98671.41;;;38.07;25.98
7962;BME280;4026;43.652;24.906;2022-08-18T12:31:16;98681.47;;;38.10;27.70
7962;BME280;4026;43.652;24.906;2022-08-18T12:33:43;98673.84;;;38.17;27.02
7962;BME280;4026;43.652;24.906;2022-08-18T12:36:10;98677.47;;;38.21;27.38
7962;BME280;4026;43.652;24.906;2022-08-18T12:38:37;98662.78;;;38.10;27.50
7962;BME280;4026;43.652;24.906;2022-08-18T12:41:05;98663.03;;;38.22;29.70
7962;BME280;4026;43.652;24.906;2022-08-18T12:43:36;98666.06;;;37.93;28.31
7962;BME280;4026;43.652;24.906;2022-08-18T12:46:03;98658.31;;;37.96;26.54
7962;BME280;4026;43.652;24.906;2022-08-18T12:48:33;98664.50;;;38.05;26.11
7962;BME280;4026;43.652;24.906;2022-08-18T12:51:02;98650.50;;;38.31;26.55
7962;BME280;4026;43.652;24.906;2022-08-18T12:53:29;98643.00;;;38.11;26.78
7962;BME280;4026;43.652;24.906;2022-08-18T12:55:56;98650.75;;;37.98;28.31
7962;BME280;4026;43.652;24.906;2022-08-18T12:58:23;98653.03;;;37.91;28.12
7962;BME280;4026;43.652;24.906;2022-08-18T13:00:49;98654.47;;;37.75;27.50
7962;BME280;4026;43.652;24.906;2022-08-18T13:03:16;98646.16;;;37.76;28.31
7962;BME280;4026;43.652;24.906;2022-08-18T13:05:45;98647.00;;;38.22;28.45
7962;BME280;4026;43.652;24.906;2022-08-18T13:08:19;98648.00;;;38.26;26.31
7962;BME280;4026;43.652;24.906;2022-08-18T13:10:48;98640.25;;;38.02;28.05
7962;BME280;4026;43.652;24.906;2022-08-18T13:13:16;98641.38;;;37.87;27.18
7962;BME280;4026;43.652;24.906;2022-08-18T13:15:44;98637.91;;;37.87;26.94
7962;BME280;4026;43.652;24.906;2022-08-18T13:18:12;98633.34;;;38.01;27.54
7962;BME280;4026;43.652;24.906;2022-08-18T13:20:39;98636.47;;;37.80;26.14
7962;BME280;4026;43.652;24.906;2022-08-18T13:23:08;98626.22;;;37.74;28.23
7962;BME280;4026;43.652;24.906;2022-08-18T13:25:35;98628.78;;;37.79;28.53
7962;BME280;4026;43.652;24.906;2022-08-18T13:28:03;98622.91;;;37.91;29.09
7962;BME280;4026;43.652;24.906;2022-08-18T13:30:30;98622.44;;;37.75;26.63
7962;BME280;4026;43.652;24.906;2022-08-18T13:32:57;98626.41;;;37.64;27.47
7962;BME280;4026;43.652;24.906;2022-08-18T13:35:24;98618.50;;;37.72;27.58
7962;BME280;4026;43.652;24.906;2022-08-18T13:37:51;98623.38;;;37.56;27.49
7962;BME280;4026;43.652;24.906;2022-08-18T13:40:21;98613.03;;;37.41;26.77
7962;BME280;4026;43.652;24.906;2022-08-18T13:42:48;98616.94;;;37.57;28.76
7962;BME280;4026;43.652;24.906;2022-08-18T13:45:17;98614.53;;;37.47;26.16
7962;BME280;4026;43.652;24.906;2022-08-18T13:47:46;98614.19;;;37.35;26.21
7962;BME280;4026;43.652;24.906;2022-08-18T13:50:13;98607.81;;;37.50;27.56
7962;BME280;4026;43.652;24.906;2022-08-18T13:52:41;98608.66;;;37.45;26.30
7962;BME280;4026;43.652;24.906;2022-08-18T13:55:11;98606.69;;;37.51;27.03